Time;durP1;ratioP1;P1;durP2;ratioP2;P2;SDS_P1;SDS_P2;PMS_P1;PMS_P2;Temp;Humidity;BMP_temperature;BMP_pressure;BME280_temperature;BME280_humidity;BME280_pressure;Samples;Min_cycle;Max_cycle;Signal;HPM_P1;HPM_P2
2023/02/25 00:02:14;;;;;;;46.97;14.17;;;;;;;-145.69;100.00;52565.19;5135227;27;20197;-81
2023/02/25 00:04:41;;;;;;;49.30;15.53;;;;;;;-145.69;100.00;52565.19;5135191;27;20236;-80
2023/02/25 00:07:11;;;;;;;48.30;14.87;;;;;;;-145.69;100.00;52614.72;5135671;27;20207;-80
2023/02/25 00:09:37;;;;;;;54.53;16.70;;;;;;;-145.69;100.00;52567.16;5128850;27;20232;-80
2023/02/25 00:12:04;;;;;;;51.67;16.50;;;;;;;-145.69;100.00;52592.91;5113528;28;20255;-80
2023/02/25 00:14:30;;;;;;;48.50;15.67;;;;;;;-145.69;100.00;52561.22;5126396;27;20197;-80
2023/02/25 00:16:57;;;;;;;55.13;15.63;;;;;;;-145.69;100.00;52571.13;5134369;27;20227;-80
2023/02/25 00:19:23;;;;;;;62.23;15.73;;;;;;;-145.69;100.00;52612.72;5135250;27;20659;-80
2023/02/25 00:21:50;;;;;;;56.20;16.67;;;;;;;-145.69;100.00;52612.72;5134975;27;20204;-80
2023/02/25 00:24:21;;;;;;;52.80;15.90;;;;;;;-145.69;100.00;52592.91;5135420;27;20552;-81
2023/02/25 00:26:47;;;;;;;45.83;15.37;;;;;;;-145.69;100.00;52602.81;5135365;27;20288;-81
2023/02/25 00:29:17;;;;;;;53.03;16.00;;;;;;;-145.69;100.00;52604.81;5134847;27;20208;-81
2023/02/25 00:31:46;;;;;;;43.80;15.23;;;;;;;-145.69;100.00;52583.00;5134975;27;20246;-81
2023/02/25 00:34:16;;;;;;;45.67;14.97;;;;;;;-145.69;100.00;52553.31;5135304;27;20205;-80
2023/02/25 00:36:58;;;;;;;50.03;16.20;;;;;;;-145.69;100.00;52630.53;5134529;27;20628;-80
2023/02/25 00:39:41;;;;;;;45.37;16.50;;;;;;;-145.69;100.00;52586.97;5135206;27;20225;-80
2023/02/25 00:42:08;;;;;;;59.57;16.33;;;;;;;-145.69;100.00;52606.78;5135005;27;20209;-82
2023/02/25 00:44:47;;;;;;;56.37;16.77;;;;;;;-145.69;100.00;52598.84;5134515;27;20249;-81
2023/02/25 00:47:16;;;;;;;64.57;17.90;;;;;;;-145.69;100.00;52577.06;5134999;27;20312;-81
2023/02/25 00:49:42;;;;;;;50.67;16.00;;;;;;;-145.69;100.00;52614.72;5134855;27;20219;-81
2023/02/25 00:52:08;;;;;;;51.97;16.73;;;;;;;-145.69;100.00;52608.75;5135002;27;20204;-82
2023/02/25 00:54:38;;;;;;;42.93;15.73;;;;;;;-145.69;100.00;52610.75;5134624;27;20197;-81
2023/02/25 00:57:06;;;;;;;41.17;16.17;;;;;;;-145.69;100.00;52594.91;5134804;27;20228;-81
2023/02/25 00:59:33;;;;;;;46.30;15.57;;;;;;;-145.69;100.00;52606.78;5134732;27;20253;-80
2023/02/25 01:02:03;;;;;;;40.97;15.57;;;;;;;-145.69;100.00;52642.44;5134547;27;20200;-80
2023/02/25 01:04:33;;;;;;;51.90;15.73;;;;;;;-145.69;100.00;52618.66;5134269;27;20231;-79
2023/02/25 01:07:03;;;;;;;46.17;15.30;;;;;;;-145.69;100.00;52602.81;5133812;27;20224;-79
2023/02/25 01:09:29;;;;;;;45.23;16.93;;;;;;;-145.69;100.00;52642.44;5134188;27;20559;-80
2023/02/25 01:11:57;;;;;;;47.00;16.30;;;;;;;-145.69;100.00;52622.63;5134398;27;20199;-80
2023/02/25 01:14:29;;;;;;;49.93;15.57;;;;;;;-145.69;100.00;52606.78;5134044;27;20197;-80
2023/02/25 01:16:56;;;;;;;48.07;16.97;;;;;;;-145.69;100.00;52592.91;5134256;27;20232;-80
2023/02/25 01:19:25;;;;;;;40.83;16.03;;;;;;;-145.69;100.00;52618.66;5134149;27;20716;-80
2023/02/25 01:21:53;;;;;;;46.97;15.77;;;;;;;-145.69;100.00;52610.75;5134107;27;20196;-80
2023/02/25 01:24:25;;;;;;;44.67;14.90;;;;;;;-145.69;100.00;52598.84;5134325;27;20204;-80
2023/02/25 01:26:54;;;;;;;44.13;15.57;;;;;;;-145.69;100.00;52590.94;5133655;27;20265;-81
2023/02/25 01:29:26;;;;;;;39.57;15.57;;;;;;;-145.69;100.00;52583.00;5134246;27;20197;-81
2023/02/25 01:31:52;;;;;;;42.50;16.37;;;;;;;-145.69;100.00;52630.53;5132924;27;20203;-81
2023/02/25 01:34:22;;;;;;;47.20;16.13;;;;;;;-145.69;100.00;52602.81;5133906;27;20203;-80
2023/02/25 01:36:51;;;;;;;39.33;14.83;;;;;;;-145.69;100.00;52575.09;5133774;27;20220;-81
2023/02/25 01:39:21;;;;;;;44.23;15.90;;;;;;;-145.69;100.00;52608.75;5133601;27;20655;-80
2023/02/25 01:41:49;;;;;;;43.33;15.60;;;;;;;-145.69;100.00;52583.00;5134182;27;20262;-81
2023/02/25 01:44:18;;;;;;;38.00;15.40;;;;;;;-145.69;100.00;52594.91;5133658;27;20284;-82
2023/02/25 01:46:48;;;;;;;44.73;16.47;;;;;;;-145.69;100.00;52594.91;5134096;27;20596;-81
2023/02/25 01:49:21;;;;;;;45.43;15.93;;;;;;;-145.69;100.00;52594.91;5132484;28;20208;-81
2023/02/25 01:51:51;;;;;;;39.50;15.53;;;;;;;-145.69;100.00;52616.69;5134127;28;20243;-81
2023/02/25 01:54:20;;;;;;;44.00;17.40;;;;;;;-145.69;100.00;52598.84;5133979;27;20205;-80
2023/02/25 01:56:50;;;;;;;44.57;16.30;;;;;;;-145.69;100.00;52579.06;5133591;27;20691;-80
2023/02/25 01:59:18;;;;;;;45.97;15.70;;;;;;;-145.69;100.00;52630.53;5133385;27;20652;-81
2023/02/25 02:01:47;;;;;;;41.63;15.60;;;;;;;-145.69;100.00;52612.72;5133858;28;20203;-81
2023/02/25 02:04:14;;;;;;;43.28;18.67;;;;;;;-145.69;100.00;52638.47;5133256;28;20437;-81
2023/02/25 02:06:47;;;;;;;48.87;16.50;;;;;;;-145.69;100.00;52577.06;5133283;27;20231;-82
2023/02/25 02:09:16;;;;;;;46.10;17.40;;;;;;;-145.69;100.00;52600.84;5134315;27;20206;-82
2023/02/25 02:11:43;;;;;;;40.27;16.23;;;;;;;-145.69;100.00;52622.63;5133793;28;20649;-81
2023/02/25 02:14:13;;;;;;;42.50;16.67;;;;;;;-145.69;100.00;52610.75;5133746;27;20286;-82
2023/02/25 02:17:13;;;;;;;40.33;16.07;;;;;;;-145.69;100.00;52622.63;5133466;28;20691;-82
2023/02/25 02:20:08;;;;;;;40.60;16.00;;;;;;;-145.69;100.00;52646.41;5104243;27;20192;-82
2023/02/25 02:22:44;;;;;;;40.07;15.63;;;;;;;-145.69;100.00;52594.91;5134117;27;20193;-82
2023/02/25 02:25:36;;;;;;;37.87;15.13;;;;;;;-145.69;100.00;52618.66;5133362;27;20239;-81
2023/02/25 02:28:27;;;;;;;40.97;15.40;;;;;;;-145.69;100.00;52612.72;5113324;28;20652;-81
2023/02/25 02:31:19;;;;;;;46.40;17.43;;;;;;;-145.69;100.00;52604.81;5113397;28;20206;-81
2023/02/25 02:33:53;;;;;;;41.90;15.90;;;;;;;-145.69;100.00;52588.97;5112879;28;20198;-80
2023/02/25 02:36:29;;;;;;;39.37;16.10;;;;;;;-145.69;100.00;52612.72;5123268;28;20749;-81
2023/02/25 02:39:02;;;;;;;41.70;15.57;;;;;;;-145.69;100.00;52620.66;5133091;27;20196;-80
2023/02/25 02:41:34;;;;;;;44.53;15.87;;;;;;;-145.69;100.00;52598.84;5137192;27;20200;-80
2023/02/25 02:44:06;;;;;;;38.23;15.50;;;;;;;-145.69;100.00;52614.72;5137151;27;20189;-80
2023/02/25 02:46:39;;;;;;;38.27;15.70;;;;;;;-145.69;100.00;52638.47;5137293;27;20223;-81
2023/02/25 02:49:11;;;;;;;42.93;15.63;;;;;;;-145.69;100.00;52618.66;5137320;27;20204;-81
2023/02/25 02:51:41;;;;;;;36.13;14.43;;;;;;;-145.69;100.00;52626.59;5136909;27;20196;-81
2023/02/25 02:54:11;;;;;;;37.07;15.93;;;;;;;-145.69;100.00;52602.81;5137112;27;20261;-81
2023/02/25 02:56:42;;;;;;;38.97;15.70;;;;;;;-145.69;100.00;52596.88;5136971;27;20232;-80
2023/02/25 02:59:14;;;;;;;35.87;14.80;;;;;;;-145.69;100.00;52626.59;5136817;27;20215;-81
2023/02/25 03:01:46;;;;;;;35.13;14.47;;;;;;;-145.69;100.00;52652.34;5136505;27;20192;-80
2023/02/25 03:04:15;;;;;;;31.33;12.13;;;;;;;-145.69;100.00;52583.00;5136902;27;20236;-81
2023/02/25 03:06:45;;;;;;;29.03;12.13;;;;;;;-145.69;100.00;52606.78;5136679;27;20189;-80
2023/02/25 03:09:16;;;;;;;28.77;11.13;;;;;;;-145.69;100.00;52604.81;5136529;27;20203;-83
2023/02/25 03:11:43;;;;;;;33.50;12.03;;;;;;;-145.69;100.00;52581.03;5136742;27;20230;-81
2023/02/25 03:14:11;;;;;;;25.60;12.23;;;;;;;-145.69;100.00;52610.75;5136502;27;20197;-80
2023/02/25 03:16:41;;;;;;;23.97;11.93;;;;;;;-145.69;100.00;52606.78;5136615;27;20232;-80
2023/02/25 03:19:13;;;;;;;24.97;11.80;;;;;;;-145.69;100.00;52604.81;5136474;27;20192;-80
2023/02/25 03:21:43;;;;;;;29.03;11.60;;;;;;;-145.69;100.00;52559.25;5136540;27;20563;-81
2023/02/25 03:24:21;;;;;;;29.77;11.70;;;;;;;-145.69;100.00;52596.88;5136733;27;20233;-81
2023/02/25 03:26:49;;;;;;;32.57;12.47;;;;;;;-145.69;100.00;52616.69;5136562;27;20279;-80
2023/02/25 03:29:18;;;;;;;32.97;13.17;;;;;;;-145.69;100.00;52602.81;5136042;27;20231;-81
2023/02/25 03:31:51;;;;;;;29.67;11.40;;;;;;;-145.69;100.00;52638.47;5136514;27;20203;-81
2023/02/25 03:34:24;;;;;;;33.77;12.40;;;;;;;-145.69;100.00;52581.03;5136226;27;20655;-81
2023/02/25 03:36:56;;;;;;;32.97;13.53;;;;;;;-145.69;100.00;52571.13;5135822;27;20221;-80
2023/02/25 03:39:27;;;;;;;34.30;12.63;;;;;;;-145.69;100.00;52622.63;5136078;27;20196;-80
2023/02/25 03:41:57;;;;;;;31.27;12.67;;;;;;;-145.69;100.00;52608.75;5136247;27;20603;-80
2023/02/25 03:44:28;;;;;;;33.13;13.60;;;;;;;-145.69;100.00;52583.00;5136198;27;20205;-80
2023/02/25 03:46:57;;;;;;;38.87;13.53;;;;;;;-145.69;100.00;52630.53;5136057;27;20204;-80
2023/02/25 03:49:28;;;;;;;32.30;13.70;;;;;;;-145.69;100.00;52596.88;5135612;27;20208;-80
2023/02/25 03:51:59;;;;;;;30.23;13.53;;;;;;;-145.69;100.00;52604.81;5134697;27;20219;-80
2023/02/25 03:54:26;;;;;;;36.07;13.50;;;;;;;-145.69;100.00;52626.59;5136046;27;20560;-80
2023/02/25 03:56:53;;;;;;;32.47;13.63;;;;;;;-145.69;100.00;52636.50;5135582;27;20217;-81
2023/02/25 03:59:22;;;;;;;31.13;13.57;;;;;;;-145.69;100.00;52616.69;5135305;27;20285;-80
2023/02/25 04:01:51;;;;;;;34.93;13.80;;;;;;;-145.69;100.00;52620.66;5135860;27;20209;-80
2023/02/25 04:04:17;;;;;;;36.33;14.20;;;;;;;-145.69;100.00;52636.50;5135174;27;20225;-80
2023/02/25 04:06:46;;;;;;;33.93;13.80;;;;;;;-145.69;100.00;52616.69;5135302;27;20559;-80
2023/02/25 04:09:12;;;;;;;37.80;14.77;;;;;;;-145.69;100.00;52606.78;5135374;27;20295;-79
2023/02/25 04:11:39;;;;;;;39.87;14.90;;;;;;;-145.69;100.00;52588.97;5135671;27;20208;-80
2023/02/25 04:14:05;;;;;;;45.40;15.00;;;;;;;-145.69;100.00;52634.50;5135361;27;20200;-80
2023/02/25 04:16:33;;;;;;;34.63;14.53;;;;;;;-145.69;100.00;52575.09;5135228;27;20250;-81
2023/02/25 04:18:59;;;;;;;36.67;13.80;;;;;;;-145.69;100.00;52598.84;5134854;27;20295;-80
2023/02/25 04:21:29;;;;;;;37.77;15.90;;;;;;;-145.69;100.00;52608.75;5135286;27;20197;-80
2023/02/25 04:23:57;;;;;;;38.13;14.50;;;;;;;-145.69;100.00;52606.78;5117076;27;20225;-80
2023/02/25 04:26:24;;;;;;;41.50;15.30;;;;;;;-145.69;100.00;52604.81;5114698;28;20224;-80
2023/02/25 04:28:51;;;;;;;46.93;15.93;;;;;;;-145.69;100.00;52592.91;5128304;27;20197;-79
2023/02/25 04:31:17;;;;;;;48.83;15.77;;;;;;;-145.69;100.00;52579.06;5135058;27;20197;-79
2023/02/25 04:33:48;;;;;;;34.50;15.20;;;;;;;-145.69;100.00;52626.59;5134899;27;20206;-80
2023/02/25 04:36:27;;;;;;;36.47;15.30;;;;;;;-145.69;100.00;52606.78;5134737;27;20192;-80
2023/02/25 04:38:54;;;;;;;38.27;14.77;;;;;;;-145.69;100.00;52614.72;5133599;27;20227;-79
2023/02/25 04:41:23;;;;;;;34.03;15.13;;;;;;;-145.69;100.00;52604.81;5134897;27;20200;-80
2023/02/25 04:43:49;;;;;;;42.33;16.53;;;;;;;-145.69;100.00;52640.44;5134951;27;20208;-80
2023/02/25 04:46:16;;;;;;;47.57;17.17;;;;;;;-145.69;100.00;52620.66;5135001;27;20581;-81
2023/02/25 04:48:42;;;;;;;47.90;18.07;;;;;;;-145.69;100.00;52602.81;5134806;27;20200;-81
2023/02/25 04:51:09;;;;;;;44.60;17.20;;;;;;;-145.69;100.00;52620.66;5134937;27;20213;-79
2023/02/25 04:53:36;;;;;;;40.80;16.63;;;;;;;-145.69;100.00;52614.72;5134817;27;20533;-80
2023/02/25 04:56:03;;;;;;;42.47;16.70;;;;;;;-145.69;100.00;52618.66;5134616;27;20670;-80
2023/02/25 04:58:32;;;;;;;48.60;18.20;;;;;;;-145.69;100.00;52614.72;5134118;27;20221;-80
2023/02/25 05:01:00;;;;;;;44.13;16.50;;;;;;;-145.69;100.00;52622.63;5134530;27;20209;-80
2023/02/25 05:03:27;;;;;;;42.40;17.10;;;;;;;-145.69;100.00;52608.75;5133892;27;20212;-80
2023/02/25 05:05:54;;;;;;;42.07;16.97;;;;;;;-145.69;100.00;52624.59;5134381;27;20203;-80
2023/02/25 05:08:21;;;;;;;47.50;16.90;;;;;;;-145.69;100.00;52648.38;5134216;27;20197;-80
2023/02/25 05:10:47;;;;;;;44.47;17.60;;;;;;;-145.69;100.00;52614.72;5134232;27;20201;-80
2023/02/25 05:13:14;;;;;;;42.93;18.37;;;;;;;-145.69;100.00;52640.44;5134279;27;20204;-80
2023/02/25 05:15:42;;;;;;;50.13;18.17;;;;;;;-145.69;100.00;52602.81;5134469;27;20516;-80
2023/02/25 05:18:09;;;;;;;49.57;19.10;;;;;;;-145.69;100.00;52583.00;5133873;27;20285;-80
2023/02/25 05:20:40;;;;;;;44.57;17.40;;;;;;;-145.69;100.00;52628.56;5134386;27;20204;-80
2023/02/25 05:23:06;;;;;;;58.87;20.40;;;;;;;-145.69;100.00;52622.63;5134260;27;20652;-81
2023/02/25 05:25:33;;;;;;;52.33;23.40;;;;;;;-145.69;100.00;52640.44;5132240;27;20433;-81
2023/02/25 05:28:02;;;;;;;59.40;19.37;;;;;;;-145.69;100.00;52618.66;5134237;27;20197;-79
2023/02/25 05:30:29;;;;;;;47.37;18.77;;;;;;;-145.69;100.00;52610.75;5134139;27;20253;-81
2023/02/25 05:32:57;;;;;;;46.30;18.90;;;;;;;-145.69;100.00;52624.59;5133652;27;20196;-80
2023/02/25 05:35:23;;;;;;;49.13;18.03;;;;;;;-145.69;100.00;52642.44;5133985;27;20567;-81
2023/02/25 05:37:50;;;;;;;50.90;18.73;;;;;;;-145.69;100.00;52616.69;5133806;27;20243;-80
2023/02/25 05:40:16;;;;;;;49.43;20.83;;;;;;;-145.69;100.00;52602.81;5134049;27;20207;-80
2023/02/25 05:42:44;;;;;;;48.97;18.07;;;;;;;-145.69;100.00;52632.53;5134213;27;20204;-80
2023/02/25 05:45:11;;;;;;;41.67;17.17;;;;;;;-145.69;100.00;52630.53;5133782;27;20223;-80
2023/02/25 05:47:37;;;;;;;43.73;16.73;;;;;;;-145.69;100.00;52622.63;5134984;27;20193;-81
2023/02/25 05:50:06;;;;;;;41.17;17.63;;;;;;;-145.69;100.00;52612.72;5133983;27;20196;-80
2023/02/25 05:52:33;;;;;;;43.13;16.07;;;;;;;-145.69;100.00;52610.75;5133660;27;20678;-81
2023/02/25 05:55:00;;;;;;;46.43;17.30;;;;;;;-145.69;100.00;52638.47;5133318;27;20196;-80
2023/02/25 05:57:27;;;;;;;36.70;16.10;;;;;;;-145.69;100.00;52660.25;5133847;28;20231;-80
2023/02/25 05:59:53;;;;;;;43.67;15.03;;;;;;;-145.69;100.00;52634.50;5133641;27;20196;-80
2023/02/25 06:02:20;;;;;;;37.60;15.80;;;;;;;-145.69;100.00;52590.94;5133253;27;20201;-79
2023/02/25 06:04:47;;;;;;;39.13;15.27;;;;;;;-145.69;100.00;52606.78;5133371;27;20225;-80
2023/02/25 06:07:15;;;;;;;32.37;13.87;;;;;;;-145.69;100.00;52624.59;5133551;28;20253;-80
2023/02/25 06:09:41;;;;;;;32.17;13.50;;;;;;;-145.69;100.00;52630.53;5133607;27;20205;-80
2023/02/25 06:12:08;;;;;;;29.70;13.00;;;;;;;-145.69;100.00;52616.69;5133999;28;20200;-80
2023/02/25 06:14:34;;;;;;;20.60;9.83;;;;;;;-145.69;100.00;52650.34;5134664;27;20197;-80
2023/02/25 06:17:02;;;;;;;22.03;9.53;;;;;;;-145.69;100.00;52636.50;5137714;27;20643;-80
2023/02/25 06:19:29;;;;;;;15.67;7.80;;;;;;;-145.69;100.00;52656.28;5136183;27;20200;-80
2023/02/25 06:21:55;;;;;;;17.33;6.53;;;;;;;-145.69;100.00;52634.50;5137509;27;20200;-80
2023/02/25 06:24:23;;;;;;;10.63;5.30;;;;;;;-145.69;100.00;52634.50;5123773;27;20205;-80
2023/02/25 06:26:50;;;;;;;8.97;4.60;;;;;;;-145.69;100.00;52594.91;5116764;28;20201;-79
2023/02/25 06:29:17;;;;;;;17.40;4.57;;;;;;;-145.69;100.00;52666.19;5117013;28;20197;-79
2023/02/25 06:31:43;;;;;;;10.83;4.27;;;;;;;-145.69;100.00;52626.59;5117011;28;20594;-79
2023/02/25 06:34:10;;;;;;;9.23;4.33;;;;;;;-145.69;100.00;52614.72;5132669;27;20197;-79
2023/02/25 06:36:36;;;;;;;8.43;4.20;;;;;;;-145.69;100.00;52616.69;5136918;27;20212;-79
2023/02/25 06:39:03;;;;;;;11.93;4.33;;;;;;;-145.69;100.00;52606.78;5137063;27;20224;-79
2023/02/25 06:41:31;;;;;;;10.17;3.30;;;;;;;-145.69;100.00;52638.47;5136048;27;20200;-79
2023/02/25 06:43:57;;;;;;;9.33;3.50;;;;;;;-145.69;100.00;52646.41;5137222;27;20196;-79
2023/02/25 06:46:26;;;;;;;19.03;3.70;;;;;;;-145.69;100.00;52626.59;5137121;27;20203;-79
2023/02/25 06:48:53;;;;;;;14.20;4.57;;;;;;;-145.69;100.00;52630.53;5136916;27;20200;-79
2023/02/25 06:51:19;;;;;;;6.77;3.10;;;;;;;-145.69;100.00;52626.59;5136994;27;20196;-79
2023/02/25 06:53:47;;;;;;;11.43;3.17;;;;;;;-145.69;100.00;52622.63;5136738;27;20207;-78
2023/02/25 06:56:18;;;;;;;10.60;3.77;;;;;;;-145.69;100.00;52626.59;5136836;27;20284;-79
2023/02/25 06:58:46;;;;;;;7.97;2.80;;;;;;;-145.69;100.00;52618.66;5136856;27;20246;-78
2023/02/25 07:01:15;;;;;;;9.57;2.40;;;;;;;-145.69;100.00;52606.78;5136876;27;20200;-79
2023/02/25 07:03:42;;;;;;;7.60;1.97;;;;;;;-145.69;100.00;52602.81;5136105;27;20232;-78
2023/02/25 07:06:09;;;;;;;11.13;2.57;;;;;;;-145.69;100.00;52608.75;5136432;27;20686;-78
2023/02/25 07:08:36;;;;;;;10.67;2.87;;;;;;;-145.69;100.00;52622.63;5136682;27;20652;-79
2023/02/25 07:11:27;;;;;;;7.37;3.00;;;;;;;-145.69;100.00;52614.72;5136800;27;20204;-79
2023/02/25 07:13:56;;;;;;;7.97;2.93;;;;;;;-145.69;100.00;52638.47;5136284;27;20204;-79
2023/02/25 07:16:22;;;;;;;9.37;3.63;;;;;;;-145.69;100.00;52622.63;5136738;27;20205;-79
2023/02/25 07:18:49;;;;;;;11.70;3.27;;;;;;;-145.69;100.00;52606.78;5136468;27;20734;-79
2023/02/25 07:21:16;;;;;;;11.73;3.33;;;;;;;-145.69;100.00;52604.81;5136140;27;20571;-79
2023/02/25 07:23:43;;;;;;;6.63;3.67;;;;;;;-145.69;100.00;52612.72;5136538;27;20220;-79
2023/02/25 07:26:11;;;;;;;8.30;3.20;;;;;;;-145.69;100.00;52614.72;5136352;27;20205;-80
2023/02/25 07:28:39;;;;;;;11.57;2.67;;;;;;;-145.69;100.00;52630.53;5136470;27;20201;-79
2023/02/25 07:31:12;;;;;;;4.53;2.07;;;;;;;-145.69;100.00;52612.72;5136117;27;20196;-80
2023/02/25 07:33:40;;;;;;;7.53;2.10;;;;;;;-145.69;100.00;52610.75;5136095;27;20288;-79
2023/02/25 07:36:07;;;;;;;8.27;2.50;;;;;;;-145.69;100.00;52588.97;5136230;27;20263;-79
2023/02/25 07:38:33;;;;;;;6.20;1.90;;;;;;;-145.69;100.00;52618.66;5136170;27;20224;-79
2023/02/25 07:41:05;;;;;;;9.80;2.50;;;;;;;-145.69;100.00;52614.72;5135806;27;20197;-79
2023/02/25 07:43:32;;;;;;;6.50;2.13;;;;;;;-145.69;100.00;52586.97;5136227;27;20201;-79
2023/02/25 07:45:58;;;;;;;9.47;2.90;;;;;;;-145.69;100.00;52614.72;5135909;27;20654;-79
2023/02/25 07:48:26;;;;;;;9.80;2.00;;;;;;;-145.69;100.00;52618.66;5135826;27;20200;-79
2023/02/25 07:50:53;;;;;;;6.10;2.50;;;;;;;-145.69;100.00;52626.59;5135684;27;20211;-79
2023/02/25 07:53:21;;;;;;;16.53;5.00;;;;;;;-145.69;100.00;52604.81;5135833;27;20204;-79
2023/02/25 07:55:48;;;;;;;6.50;2.50;;;;;;;-145.69;100.00;52610.75;5135770;27;20200;-80
2023/02/25 07:58:15;;;;;;;19.43;5.07;;;;;;;-145.69;100.00;52612.72;5135776;27;20232;-79
2023/02/25 08:00:44;;;;;;;10.53;2.23;;;;;;;-145.69;100.00;52598.84;5135643;27;20220;-79
2023/02/25 08:03:11;;;;;;;10.20;3.50;;;;;;;-145.69;100.00;52600.84;5135131;27;20216;-79
2023/02/25 08:05:46;;;;;;;7.83;2.33;;;;;;;-145.69;100.00;52618.66;5135733;27;20583;-80
2023/02/25 08:08:12;;;;;;;7.20;3.00;;;;;;;-145.69;100.00;52606.78;5135270;27;20204;-79
2023/02/25 08:10:39;;;;;;;6.53;2.50;;;;;;;-145.69;100.00;52650.34;5135415;27;20203;-79
2023/02/25 08:13:05;;;;;;;4.40;1.67;;;;;;;-145.69;100.00;52618.66;5135371;27;20235;-79
2023/02/25 08:15:32;;;;;;;5.93;2.00;;;;;;;-145.69;100.00;52626.59;5135478;27;20201;-80
2023/02/25 08:17:58;;;;;;;5.73;1.90;;;;;;;-145.69;100.00;52636.50;5135204;27;20705;-80
2023/02/25 08:20:25;;;;;;;3.67;1.87;;;;;;;-145.69;100.00;52614.72;5135090;27;20196;-79
2023/02/25 08:22:55;;;;;;;6.27;1.73;;;;;;;-145.69;100.00;52590.94;5135283;27;20201;-79
2023/02/25 08:25:24;;;;;;;5.27;2.03;;;;;;;-145.69;100.00;52622.63;5135568;27;20253;-82
2023/02/25 08:27:51;;;;;;;11.13;2.00;;;;;;;-145.69;100.00;52620.66;5135217;27;20235;-82
2023/02/25 08:30:19;;;;;;;6.87;2.10;;;;;;;-145.69;100.00;52598.84;5135299;27;20212;-80
2023/02/25 08:32:46;;;;;;;5.20;2.20;;;;;;;-145.69;100.00;52622.63;5133346;27;20636;-80
2023/02/25 08:35:13;;;;;;;8.07;2.10;;;;;;;-145.69;100.00;52614.72;5122935;27;20241;-79
2023/02/25 08:37:39;;;;;;;6.73;3.10;;;;;;;-145.69;100.00;52614.72;5134148;27;20217;-81
2023/02/25 08:40:09;;;;;;;11.77;2.90;;;;;;;-145.69;100.00;52612.72;5134874;27;20197;-80
2023/02/25 08:42:36;;;;;;;15.97;5.60;;;;;;;-145.69;100.00;52602.81;5134089;27;20220;-81
2023/02/25 08:45:04;;;;;;;6.70;2.57;;;;;;;-145.69;100.00;52608.75;5134571;27;20215;-81
2023/02/25 08:47:30;;;;;;;8.07;2.27;;;;;;;-145.69;100.00;52632.53;5134766;27;20200;-81
2023/02/25 08:49:57;;;;;;;7.20;1.97;;;;;;;-145.69;100.00;52604.81;5135243;27;20204;-82
2023/02/25 08:52:23;;;;;;;4.83;1.90;;;;;;;-145.69;100.00;52608.75;5135301;27;20197;-81
2023/02/25 08:54:50;;;;;;;5.53;1.80;;;;;;;-145.69;100.00;52571.13;5134473;27;20203;-80
2023/02/25 08:57:18;;;;;;;12.40;2.37;;;;;;;-145.69;100.00;52632.53;5134491;27;20232;-80
2023/02/25 08:59:45;;;;;;;5.47;1.90;;;;;;;-145.69;100.00;52575.09;5134844;27;20224;-80
2023/02/25 09:02:13;;;;;;;3.87;1.40;;;;;;;-145.69;100.00;52608.75;5134931;27;20216;-82
2023/02/25 09:04:41;;;;;;;4.80;1.70;;;;;;;-145.69;100.00;52614.72;5133295;27;20236;-81
2023/02/25 09:07:07;;;;;;;3.20;1.70;;;;;;;-145.69;100.00;52592.91;5134472;27;20274;-80
2023/02/25 09:09:34;;;;;;;11.47;1.70;;;;;;;-145.69;100.00;52612.72;5133959;27;20193;-81
2023/02/25 09:12:04;;;;;;;8.67;2.07;;;;;;;-145.69;100.00;52634.50;5136157;27;20200;-79
2023/02/25 09:14:32;;;;;;;3.93;1.67;;;;;;;-145.69;100.00;52610.75;5134149;27;20203;-80
2023/02/25 09:16:59;;;;;;;4.80;1.83;;;;;;;-145.69;100.00;52575.09;5132880;27;20200;-80
2023/02/25 09:19:25;;;;;;;7.17;1.87;;;;;;;-145.69;100.00;52602.81;5134074;27;20235;-80
2023/02/25 09:21:52;;;;;;;7.27;1.67;;;;;;;-145.69;100.00;52551.31;5134356;27;20205;-80
2023/02/25 09:24:18;;;;;;;6.97;1.57;;;;;;;-145.69;100.00;52573.13;5133860;27;20282;-80
2023/02/25 09:26:46;;;;;;;7.20;1.67;;;;;;;-145.69;100.00;52598.84;5134334;27;20201;-80
2023/02/25 09:29:12;;;;;;;4.80;1.53;;;;;;;-145.69;100.00;52606.78;5133930;27;20655;-80
2023/02/25 09:31:40;;;;;;;5.17;2.20;;;;;;;-145.69;100.00;52598.84;5133652;27;20537;-80
2023/02/25 09:34:09;;;;;;;3.93;1.87;;;;;;;-145.69;100.00;52614.72;5134295;27;20203;-80
2023/02/25 09:36:35;;;;;;;7.27;1.93;;;;;;;-145.69;100.00;52596.88;5134077;27;20223;-80
2023/02/25 09:39:06;;;;;;;6.60;2.00;;;;;;;-145.69;100.00;52586.97;5133490;27;20221;-81
2023/02/25 09:41:42;;;;;;;5.10;1.87;;;;;;;-145.69;100.00;52561.22;5133840;27;20200;-80
2023/02/25 09:44:15;;;;;;;7.23;1.80;;;;;;;-145.69;100.00;52573.13;5134078;27;20208;-80
2023/02/25 09:46:49;;;;;;;9.37;2.00;;;;;;;-145.69;100.00;52602.81;5134001;27;20257;-79
2023/02/25 09:49:21;;;;;;;6.17;2.10;;;;;;;-145.69;100.00;52594.91;5132955;27;20279;-80
2023/02/25 09:51:55;;;;;;;4.63;1.70;;;;;;;-145.69;100.00;52586.97;5133983;28;20614;-80
2023/02/25 09:54:25;;;;;;;6.43;1.97;;;;;;;-145.69;100.00;52622.63;5133400;27;20210;-79
2023/02/25 09:56:54;;;;;;;4.93;2.07;;;;;;;-145.69;100.00;52579.06;5133781;28;20658;-80
2023/02/25 09:59:21;;;;;;;4.27;2.00;;;;;;;-145.69;100.00;52608.75;5133896;27;20232;-79
2023/02/25 10:01:56;;;;;;;6.27;2.37;;;;;;;-145.69;100.00;52598.84;5133818;28;20196;-79
2023/02/25 10:04:30;;;;;;;5.20;2.00;;;;;;;-145.69;100.00;52592.91;5133871;27;20263;-79
2023/02/25 10:07:04;;;;;;;9.00;2.27;;;;;;;-145.69;100.00;52600.84;5133150;27;20591;-79
2023/02/25 10:09:38;;;;;;;7.73;2.50;;;;;;;-145.69;100.00;52579.06;5133588;27;20200;-79
2023/02/25 10:12:15;;;;;;;5.20;2.17;;;;;;;-145.69;100.00;52610.75;5133601;28;20197;-80
2023/02/25 10:14:55;;;;;;;8.27;2.73;;;;;;;-145.69;100.00;52604.81;5133401;28;20682;-80
2023/02/25 10:17:35;;;;;;;12.80;2.63;;;;;;;-145.69;100.00;52575.09;5133221;28;20197;-80
2023/02/25 10:20:37;;;;;;;9.33;2.63;;;;;;;-145.69;100.00;52606.78;5133567;28;20342;-81
2023/02/25 10:23:12;;;;;;;5.47;2.60;;;;;;;-145.69;100.00;52618.66;5133646;27;20207;-80
2023/02/25 10:25:44;;;;;;;4.90;2.63;;;;;;;-145.69;100.00;52579.06;5133375;27;20192;-80
2023/02/25 10:28:15;;;;;;;9.90;2.90;;;;;;;-145.69;100.00;52596.88;5133680;28;20236;-80
2023/02/25 10:30:49;;;;;;;9.93;3.67;;;;;;;-145.69;100.00;52592.91;5126204;27;20683;-81
2023/02/25 10:33:21;;;;;;;9.43;3.20;;;;;;;-145.69;100.00;52594.91;5113033;28;20198;-78
2023/02/25 10:35:54;;;;;;;8.37;2.67;;;;;;;-145.69;100.00;52579.06;5112446;28;20204;-78
2023/02/25 10:38:21;;;;;;;5.47;2.30;;;;;;;-145.69;100.00;52612.72;5116392;28;20224;-79
2023/02/25 10:40:47;;;;;;;6.23;2.57;;;;;;;-145.69;100.00;52610.75;5133000;27;20200;-78
2023/02/25 10:43:20;;;;;;;10.03;2.73;;;;;;;-145.69;100.00;52592.91;5133170;28;20199;-78
2023/02/25 10:45:51;;;;;;;7.87;2.50;;;;;;;-145.69;100.00;52565.19;5133148;27;20193;-78
2023/02/25 10:48:23;;;;;;;10.13;3.10;;;;;;;-145.69;100.00;52571.13;5133224;28;20208;-79
2023/02/25 10:51:04;;;;;;;15.70;3.23;;;;;;;-145.69;100.00;52598.84;5133066;27;20196;-78
2023/02/25 10:53:32;;;;;;;10.23;3.00;;;;;;;-145.69;100.00;52596.88;5133434;27;20654;-79
2023/02/25 10:55:59;;;;;;;7.13;2.63;;;;;;;-145.69;100.00;52604.81;5133406;27;20264;-78
2023/02/25 10:58:36;;;;;;;7.97;2.70;;;;;;;-145.69;100.00;52563.22;5132946;27;20295;-79
2023/02/25 11:01:07;;;;;;;6.17;2.23;;;;;;;-145.69;100.00;52583.00;5134617;27;20291;-79
2023/02/25 11:03:44;;;;;;;7.63;2.37;;;;;;;-145.69;100.00;52596.88;5137182;27;20229;-79
2023/02/25 11:06:23;;;;;;;6.57;2.43;;;;;;;-145.69;100.00;52583.00;5136845;27;20197;-79
2023/02/25 11:08:51;;;;;;;4.20;2.20;;;;;;;-145.69;100.00;52573.13;5136276;27;20243;-79
2023/02/25 11:11:21;;;;;;;6.53;3.00;;;;;;;-145.69;100.00;52545.38;5136077;27;20205;-79